Norfolk, Virginia
Traffic Map
Current Weather Conditions
Norfolk, Virginia
Broken Clouds
Broken Clouds
65°
Feels Like: 65°
Wind Chill: 65° Ceiling: 10000
Heat Index: 65° Visibility: 10mi
Dew Point: 57° Wind: 8mph
Humidity: 75% Direction: 360° (N)
Pressure: 30.01in Gusts: 0mph
Raw Report DataKORF 181451Z AUTO 36007KT 10SM BKN100 18/14 A3001 RMK AO2 SLP161 T01830139 53004 TSNO
Traffic Incident Summary
Active as of:
Severity:
Category:
InformationThere was an issue retrieving the traffic information for this location. Please try a different location or try again shortly.
Advertisements
Track Severe Weather on mobile